sensor_id;sensor_type;location;lat;lon;timestamp;P1;durP1;ratioP1;P2;durP2;ratioP2
22421;SDS011;11378;51.642;7.668;2023-03-19T00:00:08;2.33;;;1.48;;
22421;SDS011;11378;51.642;7.668;2023-03-19T00:02:36;1.90;;;1.65;;
22421;SDS011;11378;51.642;7.668;2023-03-19T00:05:03;1.90;;;1.40;;
22421;SDS011;11378;51.642;7.668;2023-03-19T00:07:30;1.50;;;1.40;;
22421;SDS011;11378;51.642;7.668;2023-03-19T00:09:56;1.45;;;1.27;;
22421;SDS011;11378;51.642;7.668;2023-03-19T00:12:22;1.48;;;1.38;;
22421;SDS011;11378;51.642;7.668;2023-03-19T00:14:49;1.52;;;1.42;;
22421;SDS011;11378;51.642;7.668;2023-03-19T00:17:16;1.67;;;1.55;;
22421;SDS011;11378;51.642;7.668;2023-03-19T00:19:42;1.85;;;1.58;;
22421;SDS011;11378;51.642;7.668;2023-03-19T00:22:08;1.67;;;1.50;;
22421;SDS011;11378;51.642;7.668;2023-03-19T00:24:35;2.00;;;1.27;;
22421;SDS011;11378;51.642;7.668;2023-03-19T00:27:01;1.77;;;1.33;;
22421;SDS011;11378;51.642;7.668;2023-03-19T00:29:28;1.50;;;1.40;;
22421;SDS011;11378;51.642;7.668;2023-03-19T00:31:55;1.90;;;1.67;;
22421;SDS011;11378;51.642;7.668;2023-03-19T00:34:21;1.70;;;1.42;;
22421;SDS011;11378;51.642;7.668;2023-03-19T00:36:48;1.90;;;1.70;;
22421;SDS011;11378;51.642;7.668;2023-03-19T00:39:14;1.30;;;1.20;;
22421;SDS011;11378;51.642;7.668;2023-03-19T00:41:41;1.90;;;1.50;;
22421;SDS011;11378;51.642;7.668;2023-03-19T00:44:17;2.03;;;1.60;;
22421;SDS011;11378;51.642;7.668;2023-03-19T00:46:44;2.45;;;1.80;;
22421;SDS011;11378;51.642;7.668;2023-03-19T00:49:11;2.65;;;1.70;;
22421;SDS011;11378;51.642;7.668;2023-03-19T00:51:37;1.50;;;1.40;;
22421;SDS011;11378;51.642;7.668;2023-03-19T00:54:08;1.80;;;1.50;;
22421;SDS011;11378;51.642;7.668;2023-03-19T00:56:34;2.20;;;1.50;;
22421;SDS011;11378;51.642;7.668;2023-03-19T00:59:01;1.63;;;1.38;;
22421;SDS011;11378;51.642;7.668;2023-03-19T01:01:28;1.52;;;1.40;;
22421;SDS011;11378;51.642;7.668;2023-03-19T01:03:54;2.13;;;1.70;;
22421;SDS011;11378;51.642;7.668;2023-03-19T01:06:21;1.58;;;1.40;;
22421;SDS011;11378;51.642;7.668;2023-03-19T01:08:47;1.73;;;1.33;;
22421;SDS011;11378;51.642;7.668;2023-03-19T01:11:14;1.52;;;1.30;;
22421;SDS011;11378;51.642;7.668;2023-03-19T01:13:42;1.67;;;1.48;;
22421;SDS011;11378;51.642;7.668;2023-03-19T01:16:08;2.35;;;1.40;;
22421;SDS011;11378;51.642;7.668;2023-03-19T01:18:35;1.70;;;1.40;;
22421;SDS011;11378;51.642;7.668;2023-03-19T01:21:01;1.60;;;1.50;;
22421;SDS011;11378;51.642;7.668;2023-03-19T01:23:29;1.98;;;1.52;;
22421;SDS011;11378;51.642;7.668;2023-03-19T01:25:56;1.52;;;1.35;;
22421;SDS011;11378;51.642;7.668;2023-03-19T01:28:24;2.25;;;1.42;;
22421;SDS011;11378;51.642;7.668;2023-03-19T01:30:51;1.52;;;1.40;;
22421;SDS011;11378;51.642;7.668;2023-03-19T01:33:37;2.15;;;1.70;;
22421;SDS011;11378;51.642;7.668;2023-03-19T01:36:16;1.98;;;1.60;;
22421;SDS011;11378;51.642;7.668;2023-03-19T01:38:54;1.83;;;1.40;;
22421;SDS011;11378;51.642;7.668;2023-03-19T01:41:23;1.75;;;1.50;;
22421;SDS011;11378;51.642;7.668;2023-03-19T01:43:54;1.67;;;1.30;;
22421;SDS011;11378;51.642;7.668;2023-03-19T01:46:46;1.60;;;1.48;;
22421;SDS011;11378;51.642;7.668;2023-03-19T01:49:13;1.75;;;1.23;;
22421;SDS011;11378;51.642;7.668;2023-03-19T01:51:43;2.08;;;1.52;;
22421;SDS011;11378;51.642;7.668;2023-03-19T01:54:22;2.13;;;1.80;;
22421;SDS011;11378;51.642;7.668;2023-03-19T01:56:55;1.73;;;1.58;;
22421;SDS011;11378;51.642;7.668;2023-03-19T01:59:48;2.15;;;1.50;;
22421;SDS011;11378;51.642;7.668;2023-03-19T02:02:36;1.45;;;1.23;;
22421;SDS011;11378;51.642;7.668;2023-03-19T02:05:36;2.08;;;1.50;;
22421;SDS011;11378;51.642;7.668;2023-03-19T02:10:32;1.90;;;1.40;;
22421;SDS011;11378;51.642;7.668;2023-03-19T02:12:59;1.65;;;1.40;;
22421;SDS011;11378;51.642;7.668;2023-03-19T02:15:26;1.95;;;1.40;;
22421;SDS011;11378;51.642;7.668;2023-03-19T02:17:52;1.20;;;1.10;;
22421;SDS011;11378;51.642;7.668;2023-03-19T02:22:51;1.67;;;1.40;;
22421;SDS011;11378;51.642;7.668;2023-03-19T02:25:23;2.08;;;1.40;;
22421;SDS011;11378;51.642;7.668;2023-03-19T02:27:52;2.58;;;1.40;;
22421;SDS011;11378;51.642;7.668;2023-03-19T02:30:21;1.60;;;1.45;;
22421;SDS011;11378;51.642;7.668;2023-03-19T02:32:48;2.75;;;1.58;;
22421;SDS011;11378;51.642;7.668;2023-03-19T02:35:14;1.42;;;1.33;;
22421;SDS011;11378;51.642;7.668;2023-03-19T02:37:41;2.03;;;1.77;;
22421;SDS011;11378;51.642;7.668;2023-03-19T02:40:12;1.67;;;1.55;;
22421;SDS011;11378;51.642;7.668;2023-03-19T02:42:40;1.55;;;1.40;;
22421;SDS011;11378;51.642;7.668;2023-03-19T02:45:06;1.55;;;1.33;;
22421;SDS011;11378;51.642;7.668;2023-03-19T02:47:33;1.45;;;1.30;;
22421;SDS011;11378;51.642;7.668;2023-03-19T02:50:00;2.67;;;1.52;;
22421;SDS011;11378;51.642;7.668;2023-03-19T02:52:26;2.53;;;1.60;;
22421;SDS011;11378;51.642;7.668;2023-03-19T02:54:53;1.88;;;1.30;;
22421;SDS011;11378;51.642;7.668;2023-03-19T02:57:19;2.03;;;1.45;;
22421;SDS011;11378;51.642;7.668;2023-03-19T02:59:46;1.48;;;1.30;;
22421;SDS011;11378;51.642;7.668;2023-03-19T03:02:12;1.55;;;1.45;;
22421;SDS011;11378;51.642;7.668;2023-03-19T03:04:39;1.80;;;1.30;;
22421;SDS011;11378;51.642;7.668;2023-03-19T03:07:06;1.60;;;1.23;;
22421;SDS011;11378;51.642;7.668;2023-03-19T03:09:33;1.52;;;1.20;;
22421;SDS011;11378;51.642;7.668;2023-03-19T03:11:59;3.42;;;1.40;;
22421;SDS011;11378;51.642;7.668;2023-03-19T03:14:26;1.40;;;1.30;;
22421;SDS011;11378;51.642;7.668;2023-03-19T03:16:53;1.33;;;1.23;;
22421;SDS011;11378;51.642;7.668;2023-03-19T03:19:19;1.33;;;1.20;;
22421;SDS011;11378;51.642;7.668;2023-03-19T03:21:45;1.45;;;1.35;;
22421;SDS011;11378;51.642;7.668;2023-03-19T03:24:12;1.75;;;1.27;;
22421;SDS011;11378;51.642;7.668;2023-03-19T03:26:39;1.52;;;1.42;;
22421;SDS011;11378;51.642;7.668;2023-03-19T03:29:05;1.50;;;1.30;;
22421;SDS011;11378;51.642;7.668;2023-03-19T03:31:32;2.13;;;1.45;;
22421;SDS011;11378;51.642;7.668;2023-03-19T03:34:00;1.58;;;1.35;;
22421;SDS011;11378;51.642;7.668;2023-03-19T03:36:26;1.77;;;1.30;;
22421;SDS011;11378;51.642;7.668;2023-03-19T03:38:53;1.65;;;1.33;;
22421;SDS011;11378;51.642;7.668;2023-03-19T03:41:19;1.33;;;1.20;;
22421;SDS011;11378;51.642;7.668;2023-03-19T03:43:46;1.30;;;1.20;;
22421;SDS011;11378;51.642;7.668;2023-03-19T03:46:12;1.42;;;1.23;;
22421;SDS011;11378;51.642;7.668;2023-03-19T03:48:39;1.48;;;1.33;;
22421;SDS011;11378;51.642;7.668;2023-03-19T03:51:05;1.42;;;1.30;;
22421;SDS011;11378;51.642;7.668;2023-03-19T03:53:32;1.67;;;1.30;;
22421;SDS011;11378;51.642;7.668;2023-03-19T03:55:59;1.45;;;1.30;;
22421;SDS011;11378;51.642;7.668;2023-03-19T03:58:28;1.77;;;1.50;;
22421;SDS011;11378;51.642;7.668;2023-03-19T04:00:54;1.48;;;1.38;;
22421;SDS011;11378;51.642;7.668;2023-03-19T04:03:22;1.35;;;1.25;;
22421;SDS011;11378;51.642;7.668;2023-03-19T04:05:49;1.50;;;1.30;;
22421;SDS011;11378;51.642;7.668;2023-03-19T04:08:15;1.60;;;1.30;;
22421;SDS011;11378;51.642;7.668;2023-03-19T04:10:42;1.63;;;1.13;;
22421;SDS011;11378;51.642;7.668;2023-03-19T04:13:09;1.45;;;1.30;;
22421;SDS011;11378;51.642;7.668;2023-03-19T04:15:36;1.55;;;1.30;;
22421;SDS011;11378;51.642;7.668;2023-03-19T04:18:04;1.20;;;1.10;;
22421;SDS011;11378;51.642;7.668;2023-03-19T04:20:31;1.65;;;1.30;;
22421;SDS011;11378;51.642;7.668;2023-03-19T04:22:57;1.30;;;1.20;;
22421;SDS011;11378;51.642;7.668;2023-03-19T04:25:24;1.17;;;1.10;;
22421;SDS011;11378;51.642;7.668;2023-03-19T04:27:50;1.45;;;1.23;;
22421;SDS011;11378;51.642;7.668;2023-03-19T04:30:17;1.30;;;1.20;;
22421;SDS011;11378;51.642;7.668;2023-03-19T04:32:44;1.38;;;1.27;;
22421;SDS011;11378;51.642;7.668;2023-03-19T04:35:11;1.20;;;1.10;;
22421;SDS011;11378;51.642;7.668;2023-03-19T04:37:38;2.53;;;1.58;;
22421;SDS011;11378;51.642;7.668;2023-03-19T04:40:05;2.30;;;1.50;;
22421;SDS011;11378;51.642;7.668;2023-03-19T04:42:34;1.60;;;1.47;;
22421;SDS011;11378;51.642;7.668;2023-03-19T04:45:08;1.58;;;1.48;;
22421;SDS011;11378;51.642;7.668;2023-03-19T04:47:35;1.50;;;1.33;;
22421;SDS011;11378;51.642;7.668;2023-03-19T04:50:01;1.65;;;1.35;;
22421;SDS011;11378;51.642;7.668;2023-03-19T04:52:31;1.40;;;1.30;;
22421;SDS011;11378;51.642;7.668;2023-03-19T04:54:58;1.52;;;1.30;;
22421;SDS011;11378;51.642;7.668;2023-03-19T04:57:25;1.40;;;1.30;;
22421;SDS011;11378;51.642;7.668;2023-03-19T04:59:53;1.80;;;1.45;;
22421;SDS011;11378;51.642;7.668;2023-03-19T05:02:21;1.77;;;1.25;;
22421;SDS011;11378;51.642;7.668;2023-03-19T05:04:48;1.17;;;1.05;;
22421;SDS011;11378;51.642;7.668;2023-03-19T05:07:15;1.75;;;1.30;;
22421;SDS011;11378;51.642;7.668;2023-03-19T05:09:42;1.45;;;1.20;;
22421;SDS011;11378;51.642;7.668;2023-03-19T05:12:11;1.42;;;1.30;;
22421;SDS011;11378;51.642;7.668;2023-03-19T05:14:49;1.30;;;1.20;;
22421;SDS011;11378;51.642;7.668;2023-03-19T05:17:29;1.40;;;1.30;;
22421;SDS011;11378;51.642;7.668;2023-03-19T05:20:12;1.60;;;1.40;;
22421;SDS011;11378;51.642;7.668;2023-03-19T05:22:45;1.40;;;1.30;;
22421;SDS011;11378;51.642;7.668;2023-03-19T05:25:14;1.42;;;1.33;;
22421;SDS011;11378;51.642;7.668;2023-03-19T05:27:41;1.55;;;1.40;;
22421;SDS011;11378;51.642;7.668;2023-03-19T05:30:11;1.20;;;1.10;;
22421;SDS011;11378;51.642;7.668;2023-03-19T05:32:40;1.50;;;1.23;;
22421;SDS011;11378;51.642;7.668;2023-03-19T05:35:17;1.73;;;1.30;;
22421;SDS011;11378;51.642;7.668;2023-03-19T05:37:44;1.70;;;1.38;;
22421;SDS011;11378;51.642;7.668;2023-03-19T05:40:11;1.48;;;1.30;;
22421;SDS011;11378;51.642;7.668;2023-03-19T05:42:40;1.30;;;1.20;;
22421;SDS011;11378;51.642;7.668;2023-03-19T05:45:07;1.83;;;1.38;;
22421;SDS011;11378;51.642;7.668;2023-03-19T05:47:43;1.60;;;1.30;;
22421;SDS011;11378;51.642;7.668;2023-03-19T05:50:11;1.20;;;1.10;;
22421;SDS011;11378;51.642;7.668;2023-03-19T05:52:42;1.45;;;1.35;;
22421;SDS011;11378;51.642;7.668;2023-03-19T05:55:09;1.45;;;1.35;;
22421;SDS011;11378;51.642;7.668;2023-03-19T05:57:42;1.33;;;1.23;;
22421;SDS011;11378;51.642;7.668;2023-03-19T06:00:15;1.40;;;1.30;;
22421;SDS011;11378;51.642;7.668;2023-03-19T06:05:37;1.20;;;1.10;;
22421;SDS011;11378;51.642;7.668;2023-03-19T06:08:20;1.30;;;1.20;;
22421;SDS011;11378;51.642;7.668;2023-03-19T06:10:55;2.20;;;1.33;;
22421;SDS011;11378;51.642;7.668;2023-03-19T06:13:21;1.52;;;1.30;;
22421;SDS011;11378;51.642;7.668;2023-03-19T06:15:55;1.50;;;1.40;;
22421;SDS011;11378;51.642;7.668;2023-03-19T06:18:25;1.40;;;1.30;;
22421;SDS011;11378;51.642;7.668;2023-03-19T06:20:51;1.45;;;1.33;;
22421;SDS011;11378;51.642;7.668;2023-03-19T06:23:18;1.30;;;1.20;;
22421;SDS011;11378;51.642;7.668;2023-03-19T06:25:45;1.65;;;1.33;;
22421;SDS011;11378;51.642;7.668;2023-03-19T06:28:12;1.25;;;1.15;;
22421;SDS011;11378;51.642;7.668;2023-03-19T06:30:41;1.88;;;1.52;;
22421;SDS011;11378;51.642;7.668;2023-03-19T06:33:27;1.58;;;1.40;;
22421;SDS011;11378;51.642;7.668;2023-03-19T06:35:57;1.38;;;1.27;;
22421;SDS011;11378;51.642;7.668;2023-03-19T06:38:23;1.73;;;1.52;;
22421;SDS011;11378;51.642;7.668;2023-03-19T06:40:50;2.38;;;1.40;;
22421;SDS011;11378;51.642;7.668;2023-03-19T06:43:16;1.60;;;1.17;;
22421;SDS011;11378;51.642;7.668;2023-03-19T06:45:42;2.80;;;1.38;;
22421;SDS011;11378;51.642;7.668;2023-03-19T06:48:15;1.33;;;1.23;;
22421;SDS011;11378;51.642;7.668;2023-03-19T06:50:44;4.32;;;1.30;;
22421;SDS011;11378;51.642;7.668;2023-03-19T06:53:11;1.80;;;1.48;;
22421;SDS011;11378;51.642;7.668;2023-03-19T06:55:38;1.60;;;1.17;;
22421;SDS011;11378;51.642;7.668;2023-03-19T06:58:07;1.60;;;1.20;;
22421;SDS011;11378;51.642;7.668;2023-03-19T07:03:18;1.30;;;1.20;;
22421;SDS011;11378;51.642;7.668;2023-03-19T07:05:44;1.70;;;1.20;;
22421;SDS011;11378;51.642;7.668;2023-03-19T07:11:54;2.08;;;1.63;;
22421;SDS011;11378;51.642;7.668;2023-03-19T07:14:24;1.65;;;1.30;;
22421;SDS011;11378;51.642;7.668;2023-03-19T07:16:50;1.25;;;1.15;;
22421;SDS011;11378;51.642;7.668;2023-03-19T07:19:16;2.10;;;1.50;;
22421;SDS011;11378;51.642;7.668;2023-03-19T07:21:42;2.33;;;1.30;;
22421;SDS011;11378;51.642;7.668;2023-03-19T07:27:38;2.00;;;1.20;;
22421;SDS011;11378;51.642;7.668;2023-03-19T07:30:04;1.80;;;1.20;;
22421;SDS011;11378;51.642;7.668;2023-03-19T07:32:30;1.60;;;1.30;;
22421;SDS011;11378;51.642;7.668;2023-03-19T07:34:56;1.42;;;1.33;;
22421;SDS011;11378;51.642;7.668;2023-03-19T07:37:22;1.70;;;1.40;;
22421;SDS011;11378;51.642;7.668;2023-03-19T07:39:49;1.20;;;1.10;;
22421;SDS011;11378;51.642;7.668;2023-03-19T07:42:16;1.33;;;1.08;;
22421;SDS011;11378;51.642;7.668;2023-03-19T07:44:45;1.50;;;1.17;;
22421;SDS011;11378;51.642;7.668;2023-03-19T07:47:11;1.42;;;1.23;;
22421;SDS011;11378;51.642;7.668;2023-03-19T07:49:37;1.50;;;1.40;;
22421;SDS011;11378;51.642;7.668;2023-03-19T07:52:04;1.17;;;1.00;;
22421;SDS011;11378;51.642;7.668;2023-03-19T07:54:33;1.40;;;1.30;;
22421;SDS011;11378;51.642;7.668;2023-03-19T07:56:59;1.07;;;1.00;;
22421;SDS011;11378;51.642;7.668;2023-03-19T07:59:26;1.17;;;1.08;;
22421;SDS011;11378;51.642;7.668;2023-03-19T08:01:52;1.10;;;0.95;;
22421;SDS011;11378;51.642;7.668;2023-03-19T08:04:18;1.27;;;1.17;;
22421;SDS011;11378;51.642;7.668;2023-03-19T08:09:46;1.20;;;1.10;;
22421;SDS011;11378;51.642;7.668;2023-03-19T08:12:12;2.60;;;1.10;;
22421;SDS011;11378;51.642;7.668;2023-03-19T08:14:54;1.58;;;1.20;;
22421;SDS011;11378;51.642;7.668;2023-03-19T08:17:20;1.77;;;1.30;;
22421;SDS011;11378;51.642;7.668;2023-03-19T08:22:53;1.30;;;1.20;;
22421;SDS011;11378;51.642;7.668;2023-03-19T08:25:46;1.58;;;1.30;;
22421;SDS011;11378;51.642;7.668;2023-03-19T08:31:41;1.40;;;1.15;;
22421;SDS011;11378;51.642;7.668;2023-03-19T08:37:01;1.27;;;1.17;;
22421;SDS011;11378;51.642;7.668;2023-03-19T08:39:27;1.33;;;1.10;;
22421;SDS011;11378;51.642;7.668;2023-03-19T08:45:01;1.10;;;0.85;;
22421;SDS011;11378;51.642;7.668;2023-03-19T08:47:27;1.40;;;1.10;;
22421;SDS011;11378;51.642;7.668;2023-03-19T08:49:53;1.58;;;1.17;;
22421;SDS011;11378;51.642;7.668;2023-03-19T08:52:20;1.05;;;0.95;;
22421;SDS011;11378;51.642;7.668;2023-03-19T08:54:47;1.20;;;1.10;;
22421;SDS011;11378;51.642;7.668;2023-03-19T08:57:13;1.10;;;1.00;;
22421;SDS011;11378;51.642;7.668;2023-03-19T09:03:09;1.20;;;1.10;;
22421;SDS011;11378;51.642;7.668;2023-03-19T09:05:35;1.50;;;1.10;;
22421;SDS011;11378;51.642;7.668;2023-03-19T09:08:01;1.25;;;1.10;;
22421;SDS011;11378;51.642;7.668;2023-03-19T09:10:28;1.08;;;1.00;;
22421;SDS011;11378;51.642;7.668;2023-03-19T09:12:54;1.30;;;1.20;;
22421;SDS011;11378;51.642;7.668;2023-03-19T09:15:20;1.10;;;1.00;;
22421;SDS011;11378;51.642;7.668;2023-03-19T09:18:05;1.05;;;0.85;;
22421;SDS011;11378;51.642;7.668;2023-03-19T09:20:45;1.25;;;1.15;;
22421;SDS011;11378;51.642;7.668;2023-03-19T09:23:11;1.00;;;1.00;;
22421;SDS011;11378;51.642;7.668;2023-03-19T09:25:37;1.10;;;1.00;;
22421;SDS011;11378;51.642;7.668;2023-03-19T09:28:04;1.10;;;1.00;;
22421;SDS011;11378;51.642;7.668;2023-03-19T09:30:31;1.20;;;1.10;;
22421;SDS011;11378;51.642;7.668;2023-03-19T09:32:57;1.02;;;0.95;;
22421;SDS011;11378;51.642;7.668;2023-03-19T09:35:23;1.83;;;0.98;;
22421;SDS011;11378;51.642;7.668;2023-03-19T09:37:55;1.10;;;1.00;;
22421;SDS011;11378;51.642;7.668;2023-03-19T09:40:24;1.10;;;1.00;;
22421;SDS011;11378;51.642;7.668;2023-03-19T09:42:59;0.98;;;0.98;;
22421;SDS011;11378;51.642;7.668;2023-03-19T09:49:10;1.00;;;0.95;;
22421;SDS011;11378;51.642;7.668;2023-03-19T09:51:40;1.13;;;1.02;;
22421;SDS011;11378;51.642;7.668;2023-03-19T09:55:06;0.77;;;0.77;;
22421;SDS011;11378;51.642;7.668;2023-03-19T10:01:03;1.30;;;1.20;;
22421;SDS011;11378;51.642;7.668;2023-03-19T10:15:59;0.95;;;0.80;;
22421;SDS011;11378;51.642;7.668;2023-03-19T10:18:27;1.10;;;1.00;;
22421;SDS011;11378;51.642;7.668;2023-03-19T10:21:02;1.05;;;1.00;;
22421;SDS011;11378;51.642;7.668;2023-03-19T10:26:19;1.20;;;1.00;;
22421;SDS011;11378;51.642;7.668;2023-03-19T10:34:29;1.10;;;1.00;;
22421;SDS011;11378;51.642;7.668;2023-03-19T10:37:03;1.73;;;1.40;;
22421;SDS011;11378;51.642;7.668;2023-03-19T10:39:51;1.05;;;1.02;;
22421;SDS011;11378;51.642;7.668;2023-03-19T10:48:15;1.02;;;1.00;;
22421;SDS011;11378;51.642;7.668;2023-03-19T10:50:52;1.33;;;1.20;;
22421;SDS011;11378;51.642;7.668;2023-03-19T10:54:22;1.00;;;0.90;;
22421;SDS011;11378;51.642;7.668;2023-03-19T10:56:49;1.08;;;0.95;;
22421;SDS011;11378;51.642;7.668;2023-03-19T11:02:18;1.25;;;1.15;;
22421;SDS011;11378;51.642;7.668;2023-03-19T11:04:48;1.15;;;1.05;;
22421;SDS011;11378;51.642;7.668;2023-03-19T11:07:18;1.00;;;0.90;;
22421;SDS011;11378;51.642;7.668;2023-03-19T11:09:49;0.90;;;0.90;;
22421;SDS011;11378;51.642;7.668;2023-03-19T11:14:52;0.98;;;0.98;;
22421;SDS011;11378;51.642;7.668;2023-03-19T11:17:21;0.90;;;0.90;;
22421;SDS011;11378;51.642;7.668;2023-03-19T11:19:49;1.37;;;0.90;;
22421;SDS011;11378;51.642;7.668;2023-03-19T11:25:13;1.10;;;0.98;;
22421;SDS011;11378;51.642;7.668;2023-03-19T11:27:42;1.10;;;0.90;;
22421;SDS011;11378;51.642;7.668;2023-03-19T11:30:21;1.10;;;1.00;;
22421;SDS011;11378;51.642;7.668;2023-03-19T11:35:33;0.75;;;0.75;;
22421;SDS011;11378;51.642;7.668;2023-03-19T11:41:29;1.02;;;0.93;;
22421;SDS011;11378;51.642;7.668;2023-03-19T11:52:24;0.82;;;0.82;;
22421;SDS011;11378;51.642;7.668;2023-03-19T12:05:30;0.80;;;0.80;;
22421;SDS011;11378;51.642;7.668;2023-03-19T12:08:17;1.05;;;1.00;;
22421;SDS011;11378;51.642;7.668;2023-03-19T12:13:45;0.80;;;0.80;;
22421;SDS011;11378;51.642;7.668;2023-03-19T12:18:59;0.85;;;0.85;;
22421;SDS011;11378;51.642;7.668;2023-03-19T12:29:22;0.80;;;0.80;;
22421;SDS011;11378;51.642;7.668;2023-03-19T12:34:35;1.00;;;0.90;;
22421;SDS011;11378;51.642;7.668;2023-03-19T12:42:56;0.80;;;0.80;;
22421;SDS011;11378;51.642;7.668;2023-03-19T12:46:30;0.80;;;0.80;;
22421;SDS011;11378;51.642;7.668;2023-03-19T12:49:59;1.33;;;1.23;;
22421;SDS011;11378;51.642;7.668;2023-03-19T12:57:38;0.77;;;0.77;;
22421;SDS011;11378;51.642;7.668;2023-03-19T13:02:37;1.10;;;0.90;;
22421;SDS011;11378;51.642;7.668;2023-03-19T13:05:10;1.02;;;0.98;;
22421;SDS011;11378;51.642;7.668;2023-03-19T13:10:28;1.08;;;1.00;;
22421;SDS011;11378;51.642;7.668;2023-03-19T13:12:56;1.02;;;0.93;;
22421;SDS011;11378;51.642;7.668;2023-03-19T13:17:54;1.10;;;1.00;;
22421;SDS011;11378;51.642;7.668;2023-03-19T13:23:06;1.15;;;1.05;;
22421;SDS011;11378;51.642;7.668;2023-03-19T13:25:41;0.88;;;0.85;;
22421;SDS011;11378;51.642;7.668;2023-03-19T13:28:09;1.10;;;1.05;;
22421;SDS011;11378;51.642;7.668;2023-03-19T13:30:35;1.50;;;1.02;;
22421;SDS011;11378;51.642;7.668;2023-03-19T13:33:12;0.80;;;0.80;;
22421;SDS011;11378;51.642;7.668;2023-03-19T13:35:39;0.93;;;0.93;;
22421;SDS011;11378;51.642;7.668;2023-03-19T13:40:38;1.05;;;0.95;;
22421;SDS011;11378;51.642;7.668;2023-03-19T13:43:13;1.23;;;1.02;;
22421;SDS011;11378;51.642;7.668;2023-03-19T14:05:50;1.65;;;1.20;;
22421;SDS011;11378;51.642;7.668;2023-03-19T14:11:46;1.08;;;0.98;;
22421;SDS011;11378;51.642;7.668;2023-03-19T14:14:13;0.98;;;0.98;;
22421;SDS011;11378;51.642;7.668;2023-03-19T14:16:41;1.23;;;1.20;;
22421;SDS011;11378;51.642;7.668;2023-03-19T14:29:00;4.22;;;1.80;;
22421;SDS011;11378;51.642;7.668;2023-03-19T14:31:39;2.95;;;2.08;;
22421;SDS011;11378;51.642;7.668;2023-03-19T14:34:14;2.47;;;1.90;;
22421;SDS011;11378;51.642;7.668;2023-03-19T14:36:51;5.60;;;2.42;;
22421;SDS011;11378;51.642;7.668;2023-03-19T14:39:24;2.55;;;2.03;;
22421;SDS011;11378;51.642;7.668;2023-03-19T14:42:22;3.10;;;2.53;;
22421;SDS011;11378;51.642;7.668;2023-03-19T14:55:20;3.15;;;2.45;;
22421;SDS011;11378;51.642;7.668;2023-03-19T14:57:46;4.32;;;1.98;;
22421;SDS011;11378;51.642;7.668;2023-03-19T15:00:14;3.65;;;2.00;;
22421;SDS011;11378;51.642;7.668;2023-03-19T15:02:45;2.10;;;1.90;;
22421;SDS011;11378;51.642;7.668;2023-03-19T15:05:15;2.35;;;1.90;;
22421;SDS011;11378;51.642;7.668;2023-03-19T15:07:44;2.83;;;1.73;;
22421;SDS011;11378;51.642;7.668;2023-03-19T15:10:17;2.00;;;1.80;;
22421;SDS011;11378;51.642;7.668;2023-03-19T15:15:30;1.88;;;1.70;;
22421;SDS011;11378;51.642;7.668;2023-03-19T15:18:03;2.40;;;1.30;;
22421;SDS011;11378;51.642;7.668;2023-03-19T15:20:34;2.05;;;1.55;;
22421;SDS011;11378;51.642;7.668;2023-03-19T15:23:43;1.50;;;1.40;;
22421;SDS011;11378;51.642;7.668;2023-03-19T15:26:12;1.67;;;1.52;;
22421;SDS011;11378;51.642;7.668;2023-03-19T15:28:48;2.15;;;1.60;;
22421;SDS011;11378;51.642;7.668;2023-03-19T15:31:15;1.45;;;1.35;;
22421;SDS011;11378;51.642;7.668;2023-03-19T15:33:41;2.08;;;1.80;;
22421;SDS011;11378;51.642;7.668;2023-03-19T15:36:24;1.85;;;1.45;;
22421;SDS011;11378;51.642;7.668;2023-03-19T15:38:55;1.52;;;1.42;;
22421;SDS011;11378;51.642;7.668;2023-03-19T15:41:23;1.45;;;1.20;;
22421;SDS011;11378;51.642;7.668;2023-03-19T15:43:50;2.03;;;1.60;;
22421;SDS011;11378;51.642;7.668;2023-03-19T15:46:21;1.40;;;1.30;;
22421;SDS011;11378;51.642;7.668;2023-03-19T15:48:50;1.42;;;1.33;;
22421;SDS011;11378;51.642;7.668;2023-03-19T15:51:16;1.55;;;1.30;;
22421;SDS011;11378;51.642;7.668;2023-03-19T15:53:45;1.30;;;1.20;;
22421;SDS011;11378;51.642;7.668;2023-03-19T15:56:20;1.52;;;1.40;;
22421;SDS011;11378;51.642;7.668;2023-03-19T15:58:49;2.35;;;1.20;;
22421;SDS011;11378;51.642;7.668;2023-03-19T16:01:34;1.35;;;1.13;;
22421;SDS011;11378;51.642;7.668;2023-03-19T16:04:46;1.35;;;1.20;;
22421;SDS011;11378;51.642;7.668;2023-03-19T16:07:22;1.50;;;1.40;;
22421;SDS011;11378;51.642;7.668;2023-03-19T16:09:49;1.30;;;1.20;;
22421;SDS011;11378;51.642;7.668;2023-03-19T16:15:20;1.40;;;1.30;;
22421;SDS011;11378;51.642;7.668;2023-03-19T16:17:47;1.10;;;1.00;;
22421;SDS011;11378;51.642;7.668;2023-03-19T16:20:13;1.38;;;1.13;;
22421;SDS011;11378;51.642;7.668;2023-03-19T16:22:40;1.30;;;1.20;;
22421;SDS011;11378;51.642;7.668;2023-03-19T16:25:14;1.95;;;1.30;;
22421;SDS011;11378;51.642;7.668;2023-03-19T16:27:43;1.55;;;1.40;;
22421;SDS011;11378;51.642;7.668;2023-03-19T16:30:23;4.80;;;1.65;;
22421;SDS011;11378;51.642;7.668;2023-03-19T16:33:00;1.58;;;1.48;;
22421;SDS011;11378;51.642;7.668;2023-03-19T16:35:27;2.25;;;1.40;;
22421;SDS011;11378;51.642;7.668;2023-03-19T16:38:11;3.20;;;1.35;;
22421;SDS011;11378;51.642;7.668;2023-03-19T16:43:13;4.07;;;1.63;;
22421;SDS011;11378;51.642;7.668;2023-03-19T16:45:41;2.33;;;1.38;;
22421;SDS011;11378;51.642;7.668;2023-03-19T16:48:08;1.63;;;1.50;;
22421;SDS011;11378;51.642;7.668;2023-03-19T16:50:35;1.83;;;1.50;;
22421;SDS011;11378;51.642;7.668;2023-03-19T16:53:05;1.52;;;1.42;;
22421;SDS011;11378;51.642;7.668;2023-03-19T16:55:37;2.75;;;1.60;;
22421;SDS011;11378;51.642;7.668;2023-03-19T16:58:14;3.20;;;1.60;;
22421;SDS011;11378;51.642;7.668;2023-03-19T17:00:40;2.50;;;1.60;;
22421;SDS011;11378;51.642;7.668;2023-03-19T17:03:11;2.17;;;1.30;;
22421;SDS011;11378;51.642;7.668;2023-03-19T17:05:38;1.50;;;1.20;;
22421;SDS011;11378;51.642;7.668;2023-03-19T17:08:04;1.85;;;1.65;;
22421;SDS011;11378;51.642;7.668;2023-03-19T17:10:30;1.52;;;1.42;;
22421;SDS011;11378;51.642;7.668;2023-03-19T17:12:57;1.40;;;1.30;;
22421;SDS011;11378;51.642;7.668;2023-03-19T17:15:29;2.97;;;1.30;;
22421;SDS011;11378;51.642;7.668;2023-03-19T17:17:57;1.30;;;1.17;;
22421;SDS011;11378;51.642;7.668;2023-03-19T17:20:26;1.50;;;1.40;;
22421;SDS011;11378;51.642;7.668;2023-03-19T17:22:55;1.95;;;1.45;;
22421;SDS011;11378;51.642;7.668;2023-03-19T17:25:21;1.65;;;1.50;;
22421;SDS011;11378;51.642;7.668;2023-03-19T17:27:48;2.72;;;1.20;;
22421;SDS011;11378;51.642;7.668;2023-03-19T17:30:15;1.45;;;1.30;;
22421;SDS011;11378;51.642;7.668;2023-03-19T17:32:42;3.15;;;1.35;;
22421;SDS011;11378;51.642;7.668;2023-03-19T17:35:15;1.75;;;1.65;;
22421;SDS011;11378;51.642;7.668;2023-03-19T17:37:41;1.90;;;1.50;;
22421;SDS011;11378;51.642;7.668;2023-03-19T17:40:18;1.50;;;1.40;;
22421;SDS011;11378;51.642;7.668;2023-03-19T17:42:45;2.17;;;1.48;;
22421;SDS011;11378;51.642;7.668;2023-03-19T17:45:15;1.75;;;1.38;;
22421;SDS011;11378;51.642;7.668;2023-03-19T17:47:42;1.55;;;1.42;;
22421;SDS011;11378;51.642;7.668;2023-03-19T17:50:16;5.25;;;1.42;;
22421;SDS011;11378;51.642;7.668;2023-03-19T17:52:43;2.60;;;1.42;;
22421;SDS011;11378;51.642;7.668;2023-03-19T17:55:14;1.73;;;1.40;;
22421;SDS011;11378;51.642;7.668;2023-03-19T17:57:41;2.50;;;1.33;;
22421;SDS011;11378;51.642;7.668;2023-03-19T18:00:08;2.38;;;1.60;;
22421;SDS011;11378;51.642;7.668;2023-03-19T18:02:34;4.20;;;1.48;;
22421;SDS011;11378;51.642;7.668;2023-03-19T18:05:02;1.52;;;1.42;;
22421;SDS011;11378;51.642;7.668;2023-03-19T18:07:28;2.45;;;1.50;;
22421;SDS011;11378;51.642;7.668;2023-03-19T18:09:55;2.22;;;1.40;;
22421;SDS011;11378;51.642;7.668;2023-03-19T18:12:21;1.83;;;1.33;;
22421;SDS011;11378;51.642;7.668;2023-03-19T18:14:47;1.90;;;1.50;;
22421;SDS011;11378;51.642;7.668;2023-03-19T18:17:14;5.22;;;1.40;;
22421;SDS011;11378;51.642;7.668;2023-03-19T18:19:42;2.67;;;1.50;;
22421;SDS011;11378;51.642;7.668;2023-03-19T18:22:14;1.77;;;1.38;;